sensor_id;sensor_type;location;lat;lon;timestamp;temperature;humidity
435;DHT22;204;48.942;9.256;2023-06-22T00:01:48;21.60;1.00
435;DHT22;204;48.942;9.256;2023-06-22T00:04:13;21.60;1.00
435;DHT22;204;48.942;9.256;2023-06-22T00:06:39;21.50;1.00
435;DHT22;204;48.942;9.256;2023-06-22T00:09:04;21.50;1.00
435;DHT22;204;48.942;9.256;2023-06-22T00:11:32;21.40;1.00
435;DHT22;204;48.942;9.256;2023-06-22T00:13:59;21.40;1.00
435;DHT22;204;48.942;9.256;2023-06-22T00:16:24;21.40;1.00
435;DHT22;204;48.942;9.256;2023-06-22T00:18:50;21.30;1.00
435;DHT22;204;48.942;9.256;2023-06-22T00:21:15;21.30;1.00
435;DHT22;204;48.942;9.256;2023-06-22T00:23:46;21.30;1.00
435;DHT22;204;48.942;9.256;2023-06-22T00:26:11;21.30;1.00
435;DHT22;204;48.942;9.256;2023-06-22T00:28:37;21.20;1.00
435;DHT22;204;48.942;9.256;2023-06-22T00:31:02;21.20;1.00
435;DHT22;204;48.942;9.256;2023-06-22T00:33:28;21.10;1.00
435;DHT22;204;48.942;9.256;2023-06-22T00:35:54;21.10;1.00
435;DHT22;204;48.942;9.256;2023-06-22T00:38:19;21.10;1.00
435;DHT22;204;48.942;9.256;2023-06-22T00:40:45;21.00;1.00
435;DHT22;204;48.942;9.256;2023-06-22T00:43:11;21.00;1.00
435;DHT22;204;48.942;9.256;2023-06-22T00:45:38;20.90;1.00
435;DHT22;204;48.942;9.256;2023-06-22T00:48:04;20.90;1.00
435;DHT22;204;48.942;9.256;2023-06-22T00:50:32;20.90;1.00
435;DHT22;204;48.942;9.256;2023-06-22T00:53:00;20.80;1.00
435;DHT22;204;48.942;9.256;2023-06-22T00:55:26;20.70;1.00
435;DHT22;204;48.942;9.256;2023-06-22T00:57:53;20.70;1.00
435;DHT22;204;48.942;9.256;2023-06-22T01:00:22;20.70;1.00
435;DHT22;204;48.942;9.256;2023-06-22T01:02:50;20.60;1.00
435;DHT22;204;48.942;9.256;2023-06-22T01:05:18;20.60;1.00
435;DHT22;204;48.942;9.256;2023-06-22T01:08:12;20.60;1.00
435;DHT22;204;48.942;9.256;2023-06-22T01:13:35;20.60;1.00
435;DHT22;204;48.942;9.256;2023-06-22T01:16:32;20.50;1.00
435;DHT22;204;48.942;9.256;2023-06-22T01:19:05;20.50;1.00
435;DHT22;204;48.942;9.256;2023-06-22T01:21:34;20.50;1.00
435;DHT22;204;48.942;9.256;2023-06-22T01:29:59;20.50;1.00
435;DHT22;204;48.942;9.256;2023-06-22T01:32:35;20.40;1.00
435;DHT22;204;48.942;9.256;2023-06-22T01:35:05;20.50;1.00
435;DHT22;204;48.942;9.256;2023-06-22T01:37:32;20.40;1.00
435;DHT22;204;48.942;9.256;2023-06-22T01:39:59;20.40;1.00
435;DHT22;204;48.942;9.256;2023-06-22T01:42:25;20.40;1.00
435;DHT22;204;48.942;9.256;2023-06-22T01:44:55;20.40;1.00
435;DHT22;204;48.942;9.256;2023-06-22T01:47:22;20.40;1.00
435;DHT22;204;48.942;9.256;2023-06-22T01:49:49;20.40;1.00
435;DHT22;204;48.942;9.256;2023-06-22T01:52:15;20.40;1.00
435;DHT22;204;48.942;9.256;2023-06-22T01:54:41;20.30;1.00
435;DHT22;204;48.942;9.256;2023-06-22T01:57:07;20.40;1.00
435;DHT22;204;48.942;9.256;2023-06-22T01:59:43;20.40;1.00
435;DHT22;204;48.942;9.256;2023-06-22T02:02:16;20.30;1.00
435;DHT22;204;48.942;9.256;2023-06-22T02:04:56;20.30;1.00
435;DHT22;204;48.942;9.256;2023-06-22T02:07:23;20.30;1.00
435;DHT22;204;48.942;9.256;2023-06-22T02:09:55;20.20;1.00
435;DHT22;204;48.942;9.256;2023-06-22T02:12:23;20.20;1.00
435;DHT22;204;48.942;9.256;2023-06-22T02:14:51;20.20;1.00
435;DHT22;204;48.942;9.256;2023-06-22T02:17:17;20.10;1.00
435;DHT22;204;48.942;9.256;2023-06-22T02:19:43;20.10;1.00
435;DHT22;204;48.942;9.256;2023-06-22T02:22:09;20.10;1.00
435;DHT22;204;48.942;9.256;2023-06-22T02:24:34;20.10;1.00
435;DHT22;204;48.942;9.256;2023-06-22T02:27:01;20.10;1.00
435;DHT22;204;48.942;9.256;2023-06-22T02:29:27;20.00;1.00
435;DHT22;204;48.942;9.256;2023-06-22T02:31:54;20.00;1.00
435;DHT22;204;48.942;9.256;2023-06-22T02:34:21;20.00;1.00
435;DHT22;204;48.942;9.256;2023-06-22T02:36:50;20.00;1.00
435;DHT22;204;48.942;9.256;2023-06-22T02:39:23;20.00;1.00
435;DHT22;204;48.942;9.256;2023-06-22T02:41:53;20.00;1.00
435;DHT22;204;48.942;9.256;2023-06-22T02:44:19;20.00;1.00
435;DHT22;204;48.942;9.256;2023-06-22T02:46:45;20.00;1.00
435;DHT22;204;48.942;9.256;2023-06-22T02:49:11;19.90;1.00
435;DHT22;204;48.942;9.256;2023-06-22T02:51:39;19.90;1.00
435;DHT22;204;48.942;9.256;2023-06-22T02:54:05;19.90;1.00
435;DHT22;204;48.942;9.256;2023-06-22T02:56:31;19.80;1.00
435;DHT22;204;48.942;9.256;2023-06-22T02:58:57;19.80;1.00
435;DHT22;204;48.942;9.256;2023-06-22T03:01:29;19.80;1.00
435;DHT22;204;48.942;9.256;2023-06-22T03:04:08;19.70;1.00
435;DHT22;204;48.942;9.256;2023-06-22T03:06:34;19.70;1.00
435;DHT22;204;48.942;9.256;2023-06-22T03:09:04;19.70;1.00
435;DHT22;204;48.942;9.256;2023-06-22T03:11:33;19.60;1.00
435;DHT22;204;48.942;9.256;2023-06-22T03:14:01;19.60;1.00
435;DHT22;204;48.942;9.256;2023-06-22T03:16:26;19.60;1.00
435;DHT22;204;48.942;9.256;2023-06-22T03:18:52;19.60;1.00
435;DHT22;204;48.942;9.256;2023-06-22T03:21:19;19.60;1.00
435;DHT22;204;48.942;9.256;2023-06-22T03:23:45;19.50;1.00
435;DHT22;204;48.942;9.256;2023-06-22T03:26:11;19.50;1.00
435;DHT22;204;48.942;9.256;2023-06-22T03:28:37;19.50;1.00
435;DHT22;204;48.942;9.256;2023-06-22T03:31:04;19.50;1.00
435;DHT22;204;48.942;9.256;2023-06-22T03:33:31;19.50;1.00
435;DHT22;204;48.942;9.256;2023-06-22T03:35:57;19.60;1.00
435;DHT22;204;48.942;9.256;2023-06-22T03:38:23;19.60;1.00
435;DHT22;204;48.942;9.256;2023-06-22T03:40:48;19.60;1.00
435;DHT22;204;48.942;9.256;2023-06-22T03:43:14;19.60;1.00
435;DHT22;204;48.942;9.256;2023-06-22T03:45:39;19.70;1.00
435;DHT22;204;48.942;9.256;2023-06-22T03:48:05;19.70;1.00
435;DHT22;204;48.942;9.256;2023-06-22T03:50:31;19.80;1.00
435;DHT22;204;48.942;9.256;2023-06-22T03:52:57;19.80;1.00
435;DHT22;204;48.942;9.256;2023-06-22T03:55:22;19.80;1.00
435;DHT22;204;48.942;9.256;2023-06-22T03:57:48;19.80;1.00
435;DHT22;204;48.942;9.256;2023-06-22T04:00:14;19.90;1.00
435;DHT22;204;48.942;9.256;2023-06-22T04:02:41;20.00;1.00
435;DHT22;204;48.942;9.256;2023-06-22T04:05:08;20.10;1.00
435;DHT22;204;48.942;9.256;2023-06-22T04:07:34;20.20;1.00
435;DHT22;204;48.942;9.256;2023-06-22T04:10:03;20.40;1.00
435;DHT22;204;48.942;9.256;2023-06-22T04:12:29;20.50;1.00
435;DHT22;204;48.942;9.256;2023-06-22T04:14:54;20.70;1.00
435;DHT22;204;48.942;9.256;2023-06-22T04:17:20;20.80;1.00
435;DHT22;204;48.942;9.256;2023-06-22T04:19:45;21.00;1.00
435;DHT22;204;48.942;9.256;2023-06-22T04:22:11;21.20;1.00
435;DHT22;204;48.942;9.256;2023-06-22T04:24:37;21.30;1.00
435;DHT22;204;48.942;9.256;2023-06-22T04:27:03;21.60;1.00
435;DHT22;204;48.942;9.256;2023-06-22T04:29:29;22.00;1.00
435;DHT22;204;48.942;9.256;2023-06-22T04:31:56;22.50;1.00
435;DHT22;204;48.942;9.256;2023-06-22T04:34:24;22.70;1.00
435;DHT22;204;48.942;9.256;2023-06-22T04:36:51;23.10;1.00
435;DHT22;204;48.942;9.256;2023-06-22T04:39:17;23.10;1.00
435;DHT22;204;48.942;9.256;2023-06-22T04:41:44;23.30;1.00
435;DHT22;204;48.942;9.256;2023-06-22T04:44:13;23.10;1.00
435;DHT22;204;48.942;9.256;2023-06-22T04:46:39;23.10;1.00
435;DHT22;204;48.942;9.256;2023-06-22T04:49:06;23.20;1.00
435;DHT22;204;48.942;9.256;2023-06-22T04:51:40;23.10;1.00
435;DHT22;204;48.942;9.256;2023-06-22T04:54:07;23.10;1.00
435;DHT22;204;48.942;9.256;2023-06-22T04:56:33;23.20;1.00
435;DHT22;204;48.942;9.256;2023-06-22T04:58:59;23.30;1.00
435;DHT22;204;48.942;9.256;2023-06-22T05:01:25;23.40;1.00
435;DHT22;204;48.942;9.256;2023-06-22T05:03:51;23.60;1.00
435;DHT22;204;48.942;9.256;2023-06-22T05:06:21;23.80;1.00
435;DHT22;204;48.942;9.256;2023-06-22T05:08:47;23.70;1.00
435;DHT22;204;48.942;9.256;2023-06-22T05:11:12;23.70;1.00
435;DHT22;204;48.942;9.256;2023-06-22T05:13:38;23.80;1.00
435;DHT22;204;48.942;9.256;2023-06-22T05:16:04;23.90;1.00
435;DHT22;204;48.942;9.256;2023-06-22T05:18:31;23.90;1.00
435;DHT22;204;48.942;9.256;2023-06-22T05:20:58;23.80;1.00
435;DHT22;204;48.942;9.256;2023-06-22T05:23:24;24.00;1.00
435;DHT22;204;48.942;9.256;2023-06-22T05:25:51;24.00;1.00
435;DHT22;204;48.942;9.256;2023-06-22T05:28:16;24.30;1.00
435;DHT22;204;48.942;9.256;2023-06-22T05:30:42;24.60;1.00
435;DHT22;204;48.942;9.256;2023-06-22T05:33:08;24.50;1.00
435;DHT22;204;48.942;9.256;2023-06-22T05:35:33;24.20;1.00
435;DHT22;204;48.942;9.256;2023-06-22T05:37:59;24.00;1.00
435;DHT22;204;48.942;9.256;2023-06-22T05:40:24;23.80;1.00
435;DHT22;204;48.942;9.256;2023-06-22T05:42:50;23.80;1.00
435;DHT22;204;48.942;9.256;2023-06-22T05:45:15;24.00;1.00
435;DHT22;204;48.942;9.256;2023-06-22T05:47:41;24.20;1.00
435;DHT22;204;48.942;9.256;2023-06-22T05:50:07;24.20;1.00
435;DHT22;204;48.942;9.256;2023-06-22T05:52:34;24.30;1.00
435;DHT22;204;48.942;9.256;2023-06-22T05:54:59;24.40;1.00
435;DHT22;204;48.942;9.256;2023-06-22T05:57:25;24.60;1.00
435;DHT22;204;48.942;9.256;2023-06-22T05:59:50;24.80;1.00
435;DHT22;204;48.942;9.256;2023-06-22T06:02:17;24.90;1.00
435;DHT22;204;48.942;9.256;2023-06-22T06:04:42;25.00;1.00
435;DHT22;204;48.942;9.256;2023-06-22T06:07:08;24.70;1.00
435;DHT22;204;48.942;9.256;2023-06-22T06:09:33;24.20;1.00
435;DHT22;204;48.942;9.256;2023-06-22T06:11:59;24.10;1.00
435;DHT22;204;48.942;9.256;2023-06-22T06:14:24;24.10;1.00
435;DHT22;204;48.942;9.256;2023-06-22T06:16:50;24.30;1.00
435;DHT22;204;48.942;9.256;2023-06-22T06:19:15;24.30;1.00
435;DHT22;204;48.942;9.256;2023-06-22T06:21:41;24.50;1.00
435;DHT22;204;48.942;9.256;2023-06-22T06:24:07;24.50;1.00
435;DHT22;204;48.942;9.256;2023-06-22T06:26:32;24.70;1.00
435;DHT22;204;48.942;9.256;2023-06-22T06:29:00;24.80;1.00
435;DHT22;204;48.942;9.256;2023-06-22T06:31:26;24.90;1.00
435;DHT22;204;48.942;9.256;2023-06-22T06:33:54;24.80;1.00
435;DHT22;204;48.942;9.256;2023-06-22T06:36:20;24.70;1.00
435;DHT22;204;48.942;9.256;2023-06-22T06:38:46;24.70;1.00
435;DHT22;204;48.942;9.256;2023-06-22T06:41:16;24.60;1.00
435;DHT22;204;48.942;9.256;2023-06-22T06:43:42;24.50;1.00
435;DHT22;204;48.942;9.256;2023-06-22T06:46:10;24.60;1.00
435;DHT22;204;48.942;9.256;2023-06-22T06:48:36;24.60;1.00
435;DHT22;204;48.942;9.256;2023-06-22T06:51:02;24.90;1.00
435;DHT22;204;48.942;9.256;2023-06-22T06:53:27;25.30;1.00
435;DHT22;204;48.942;9.256;2023-06-22T06:55:54;25.70;1.00
435;DHT22;204;48.942;9.256;2023-06-22T06:58:19;26.00;1.00
435;DHT22;204;48.942;9.256;2023-06-22T07:00:45;26.30;99.90
435;DHT22;204;48.942;9.256;2023-06-22T07:03:11;26.30;99.90
435;DHT22;204;48.942;9.256;2023-06-22T07:05:36;26.60;99.90
435;DHT22;204;48.942;9.256;2023-06-22T07:08:02;26.80;99.90
435;DHT22;204;48.942;9.256;2023-06-22T07:10:28;26.70;99.90
435;DHT22;204;48.942;9.256;2023-06-22T07:12:57;26.80;99.90
435;DHT22;204;48.942;9.256;2023-06-22T07:15:22;26.90;99.90
435;DHT22;204;48.942;9.256;2023-06-22T07:17:48;26.90;99.90
435;DHT22;204;48.942;9.256;2023-06-22T07:20:13;27.00;99.90
435;DHT22;204;48.942;9.256;2023-06-22T07:22:40;27.00;99.90
435;DHT22;204;48.942;9.256;2023-06-22T07:25:06;27.10;99.90
435;DHT22;204;48.942;9.256;2023-06-22T07:27:37;27.20;99.90
435;DHT22;204;48.942;9.256;2023-06-22T07:30:04;27.40;99.90
435;DHT22;204;48.942;9.256;2023-06-22T07:32:30;27.50;99.90
435;DHT22;204;48.942;9.256;2023-06-22T07:34:55;27.70;99.90
435;DHT22;204;48.942;9.256;2023-06-22T07:37:21;27.90;99.90
435;DHT22;204;48.942;9.256;2023-06-22T07:39:46;27.90;99.90
435;DHT22;204;48.942;9.256;2023-06-22T07:42:12;27.80;99.90
435;DHT22;204;48.942;9.256;2023-06-22T07:44:37;27.50;99.90
435;DHT22;204;48.942;9.256;2023-06-22T07:47:03;27.80;99.90
435;DHT22;204;48.942;9.256;2023-06-22T07:49:29;28.10;99.90
435;DHT22;204;48.942;9.256;2023-06-22T07:51:54;28.30;99.90
435;DHT22;204;48.942;9.256;2023-06-22T07:54:20;28.30;99.90
435;DHT22;204;48.942;9.256;2023-06-22T07:56:46;27.80;99.90
435;DHT22;204;48.942;9.256;2023-06-22T07:59:12;28.00;99.90
435;DHT22;204;48.942;9.256;2023-06-22T08:01:37;28.10;99.90
435;DHT22;204;48.942;9.256;2023-06-22T08:04:03;28.10;99.90
435;DHT22;204;48.942;9.256;2023-06-22T08:06:30;28.40;99.90
435;DHT22;204;48.942;9.256;2023-06-22T08:08:56;28.50;99.90
435;DHT22;204;48.942;9.256;2023-06-22T08:11:22;28.60;99.90
435;DHT22;204;48.942;9.256;2023-06-22T08:13:49;28.80;99.90
435;DHT22;204;48.942;9.256;2023-06-22T08:16:14;29.10;99.90
435;DHT22;204;48.942;9.256;2023-06-22T08:18:40;29.30;99.90
435;DHT22;204;48.942;9.256;2023-06-22T08:21:05;29.50;99.90
435;DHT22;204;48.942;9.256;2023-06-22T08:23:31;29.80;99.90
435;DHT22;204;48.942;9.256;2023-06-22T08:25:56;30.00;99.90
435;DHT22;204;48.942;9.256;2023-06-22T08:28:22;30.20;99.90
435;DHT22;204;48.942;9.256;2023-06-22T08:30:48;30.40;99.90
435;DHT22;204;48.942;9.256;2023-06-22T08:33:13;30.60;99.90
435;DHT22;204;48.942;9.256;2023-06-22T08:35:39;31.00;99.90
435;DHT22;204;48.942;9.256;2023-06-22T08:38:04;31.50;99.90
435;DHT22;204;48.942;9.256;2023-06-22T08:40:30;31.90;99.90
435;DHT22;204;48.942;9.256;2023-06-22T08:42:56;32.20;99.90
435;DHT22;204;48.942;9.256;2023-06-22T08:45:21;32.50;99.90
435;DHT22;204;48.942;9.256;2023-06-22T08:47:47;32.70;99.90
435;DHT22;204;48.942;9.256;2023-06-22T08:50:13;32.80;99.90
435;DHT22;204;48.942;9.256;2023-06-22T08:52:40;32.80;99.90
435;DHT22;204;48.942;9.256;2023-06-22T08:55:09;33.00;99.90
435;DHT22;204;48.942;9.256;2023-06-22T08:57:35;33.20;99.90
435;DHT22;204;48.942;9.256;2023-06-22T09:00:05;33.20;99.90
435;DHT22;204;48.942;9.256;2023-06-22T09:02:30;33.30;99.90
435;DHT22;204;48.942;9.256;2023-06-22T09:04:57;33.30;99.90
435;DHT22;204;48.942;9.256;2023-06-22T09:07:23;33.40;99.90
435;DHT22;204;48.942;9.256;2023-06-22T09:09:50;33.50;99.90
435;DHT22;204;48.942;9.256;2023-06-22T09:12:17;33.60;99.90
435;DHT22;204;48.942;9.256;2023-06-22T09:14:42;33.80;99.90
435;DHT22;204;48.942;9.256;2023-06-22T09:17:08;34.30;99.90
435;DHT22;204;48.942;9.256;2023-06-22T09:19:33;34.60;99.90
435;DHT22;204;48.942;9.256;2023-06-22T09:22:00;35.00;99.90
435;DHT22;204;48.942;9.256;2023-06-22T09:24:26;35.00;99.90
435;DHT22;204;48.942;9.256;2023-06-22T09:26:51;34.90;99.90
435;DHT22;204;48.942;9.256;2023-06-22T09:29:17;34.80;99.90
435;DHT22;204;48.942;9.256;2023-06-22T09:31:42;34.80;99.90
435;DHT22;204;48.942;9.256;2023-06-22T09:34:08;34.90;99.90
435;DHT22;204;48.942;9.256;2023-06-22T09:36:33;34.90;99.90
435;DHT22;204;48.942;9.256;2023-06-22T09:39:00;34.90;99.90
435;DHT22;204;48.942;9.256;2023-06-22T09:41:31;34.80;99.90
435;DHT22;204;48.942;9.256;2023-06-22T09:43:56;34.80;99.90
435;DHT22;204;48.942;9.256;2023-06-22T09:46:22;34.90;99.90
435;DHT22;204;48.942;9.256;2023-06-22T09:48:50;34.80;99.90
435;DHT22;204;48.942;9.256;2023-06-22T09:51:16;35.00;99.90
435;DHT22;204;48.942;9.256;2023-06-22T09:53:41;35.10;99.90
435;DHT22;204;48.942;9.256;2023-06-22T09:56:07;35.10;99.90
435;DHT22;204;48.942;9.256;2023-06-22T09:58:36;35.20;99.90
435;DHT22;204;48.942;9.256;2023-06-22T10:01:02;35.10;99.90
435;DHT22;204;48.942;9.256;2023-06-22T10:03:27;34.80;99.90
435;DHT22;204;48.942;9.256;2023-06-22T10:05:53;34.40;99.90
435;DHT22;204;48.942;9.256;2023-06-22T10:08:18;34.20;99.90
435;DHT22;204;48.942;9.256;2023-06-22T10:10:44;33.80;99.90
435;DHT22;204;48.942;9.256;2023-06-22T10:13:10;33.80;99.90
435;DHT22;204;48.942;9.256;2023-06-22T10:15:36;34.00;99.90
435;DHT22;204;48.942;9.256;2023-06-22T10:18:02;34.10;99.90
435;DHT22;204;48.942;9.256;2023-06-22T10:20:28;34.00;99.90
435;DHT22;204;48.942;9.256;2023-06-22T10:22:53;33.90;99.90
435;DHT22;204;48.942;9.256;2023-06-22T10:25:19;34.20;99.90
435;DHT22;204;48.942;9.256;2023-06-22T10:27:45;34.40;99.90
435;DHT22;204;48.942;9.256;2023-06-22T10:30:11;34.70;99.90
435;DHT22;204;48.942;9.256;2023-06-22T10:32:38;34.90;99.90
435;DHT22;204;48.942;9.256;2023-06-22T10:35:05;34.90;99.90
435;DHT22;204;48.942;9.256;2023-06-22T10:37:31;34.90;99.90
435;DHT22;204;48.942;9.256;2023-06-22T10:39:56;35.10;99.90
435;DHT22;204;48.942;9.256;2023-06-22T10:42:22;35.30;99.90
435;DHT22;204;48.942;9.256;2023-06-22T10:44:47;35.50;99.90
435;DHT22;204;48.942;9.256;2023-06-22T10:47:13;35.70;99.90
435;DHT22;204;48.942;9.256;2023-06-22T10:49:39;36.00;99.90
435;DHT22;204;48.942;9.256;2023-06-22T10:52:06;36.40;99.90
435;DHT22;204;48.942;9.256;2023-06-22T10:54:33;36.70;99.90
435;DHT22;204;48.942;9.256;2023-06-22T10:56:59;36.90;99.90
435;DHT22;204;48.942;9.256;2023-06-22T10:59:25;37.10;99.90
435;DHT22;204;48.942;9.256;2023-06-22T11:01:51;37.30;99.90
435;DHT22;204;48.942;9.256;2023-06-22T11:04:17;37.40;99.90
435;DHT22;204;48.942;9.256;2023-06-22T11:06:43;37.60;99.90
435;DHT22;204;48.942;9.256;2023-06-22T11:09:09;37.80;99.90
435;DHT22;204;48.942;9.256;2023-06-22T11:11:34;37.90;99.90
435;DHT22;204;48.942;9.256;2023-06-22T11:14:00;37.80;99.90
435;DHT22;204;48.942;9.256;2023-06-22T11:16:26;37.80;99.90
435;DHT22;204;48.942;9.256;2023-06-22T11:18:51;37.70;99.90
435;DHT22;204;48.942;9.256;2023-06-22T11:21:17;37.50;99.90
435;DHT22;204;48.942;9.256;2023-06-22T11:23:42;37.40;99.90
435;DHT22;204;48.942;9.256;2023-06-22T11:26:08;37.30;99.90
435;DHT22;204;48.942;9.256;2023-06-22T11:28:33;37.20;99.90
435;DHT22;204;48.942;9.256;2023-06-22T11:30:59;37.30;99.90
435;DHT22;204;48.942;9.256;2023-06-22T11:33:25;37.30;99.90
435;DHT22;204;48.942;9.256;2023-06-22T11:35:51;37.40;99.90
435;DHT22;204;48.942;9.256;2023-06-22T11:38:16;37.30;99.90
435;DHT22;204;48.942;9.256;2023-06-22T11:40:42;37.50;99.90
435;DHT22;204;48.942;9.256;2023-06-22T11:43:08;37.60;99.90
435;DHT22;204;48.942;9.256;2023-06-22T11:45:33;37.70;99.90
435;DHT22;204;48.942;9.256;2023-06-22T11:47:59;37.60;99.90
435;DHT22;204;48.942;9.256;2023-06-22T11:50:24;37.50;99.90
435;DHT22;204;48.942;9.256;2023-06-22T11:52:50;37.40;99.90
435;DHT22;204;48.942;9.256;2023-06-22T11:55:18;37.30;99.90
435;DHT22;204;48.942;9.256;2023-06-22T11:57:55;37.30;99.90
435;DHT22;204;48.942;9.256;2023-06-22T12:00:21;37.40;99.90
435;DHT22;204;48.942;9.256;2023-06-22T12:02:49;37.50;99.90
435;DHT22;204;48.942;9.256;2023-06-22T12:05:17;37.70;99.90
435;DHT22;204;48.942;9.256;2023-06-22T12:07:43;37.90;99.90
435;DHT22;204;48.942;9.256;2023-06-22T12:10:09;37.90;99.90
435;DHT22;204;48.942;9.256;2023-06-22T12:12:35;37.70;99.90
435;DHT22;204;48.942;9.256;2023-06-22T12:15:01;37.60;99.90
435;DHT22;204;48.942;9.256;2023-06-22T12:17:29;37.50;99.90
435;DHT22;204;48.942;9.256;2023-06-22T12:19:55;37.30;99.90
435;DHT22;204;48.942;9.256;2023-06-22T12:22:21;37.10;99.90
435;DHT22;204;48.942;9.256;2023-06-22T12:24:47;37.00;99.90
435;DHT22;204;48.942;9.256;2023-06-22T12:27:12;36.80;99.90
435;DHT22;204;48.942;9.256;2023-06-22T12:29:38;36.60;99.90
435;DHT22;204;48.942;9.256;2023-06-22T12:32:04;36.50;99.90
435;DHT22;204;48.942;9.256;2023-06-22T12:34:29;36.50;99.90
435;DHT22;204;48.942;9.256;2023-06-22T12:36:55;36.50;99.90
435;DHT22;204;48.942;9.256;2023-06-22T12:39:21;36.50;99.90
435;DHT22;204;48.942;9.256;2023-06-22T12:41:46;36.50;99.90
435;DHT22;204;48.942;9.256;2023-06-22T12:44:12;36.30;99.90
435;DHT22;204;48.942;9.256;2023-06-22T12:46:37;36.30;99.90
435;DHT22;204;48.942;9.256;2023-06-22T12:49:04;36.20;99.90
435;DHT22;204;48.942;9.256;2023-06-22T12:51:33;36.10;99.90
435;DHT22;204;48.942;9.256;2023-06-22T12:53:59;36.00;99.90
435;DHT22;204;48.942;9.256;2023-06-22T12:56:25;35.90;99.90
435;DHT22;204;48.942;9.256;2023-06-22T12:58:50;35.80;99.90
435;DHT22;204;48.942;9.256;2023-06-22T13:01:16;35.70;99.90
435;DHT22;204;48.942;9.256;2023-06-22T13:03:43;35.70;99.90
435;DHT22;204;48.942;9.256;2023-06-22T13:06:09;35.80;99.90
435;DHT22;204;48.942;9.256;2023-06-22T13:08:34;35.80;99.90
435;DHT22;204;48.942;9.256;2023-06-22T13:11:00;35.80;99.90
435;DHT22;204;48.942;9.256;2023-06-22T13:13:25;35.80;99.90
435;DHT22;204;48.942;9.256;2023-06-22T13:15:52;35.80;99.90
435;DHT22;204;48.942;9.256;2023-06-22T13:18:19;35.70;99.90
435;DHT22;204;48.942;9.256;2023-06-22T13:20:44;35.70;99.90
435;DHT22;204;48.942;9.256;2023-06-22T13:23:11;35.70;99.90
435;DHT22;204;48.942;9.256;2023-06-22T13:25:37;35.80;99.90
435;DHT22;204;48.942;9.256;2023-06-22T13:28:02;35.70;99.90
435;DHT22;204;48.942;9.256;2023-06-22T13:30:28;35.60;99.90
435;DHT22;204;48.942;9.256;2023-06-22T13:32:54;35.50;99.90
435;DHT22;204;48.942;9.256;2023-06-22T13:35:20;35.30;99.90
435;DHT22;204;48.942;9.256;2023-06-22T13:37:45;35.30;99.90
435;DHT22;204;48.942;9.256;2023-06-22T13:40:11;35.10;99.90
435;DHT22;204;48.942;9.256;2023-06-22T13:42:36;35.00;99.90
435;DHT22;204;48.942;9.256;2023-06-22T13:45:03;35.00;99.90
435;DHT22;204;48.942;9.256;2023-06-22T13:47:29;35.20;99.90
435;DHT22;204;48.942;9.256;2023-06-22T13:49:55;35.30;99.90
435;DHT22;204;48.942;9.256;2023-06-22T13:52:21;35.40;99.90
435;DHT22;204;48.942;9.256;2023-06-22T13:54:46;35.50;99.90
435;DHT22;204;48.942;9.256;2023-06-22T13:57:12;35.60;99.90
435;DHT22;204;48.942;9.256;2023-06-22T13:59:37;35.70;99.90
435;DHT22;204;48.942;9.256;2023-06-22T14:02:03;35.90;99.90
435;DHT22;204;48.942;9.256;2023-06-22T14:04:29;36.20;99.90
435;DHT22;204;48.942;9.256;2023-06-22T14:06:54;36.40;99.90
435;DHT22;204;48.942;9.256;2023-06-22T14:09:21;36.40;99.90
435;DHT22;204;48.942;9.256;2023-06-22T14:11:46;36.50;99.90
435;DHT22;204;48.942;9.256;2023-06-22T14:14:12;36.50;99.90
435;DHT22;204;48.942;9.256;2023-06-22T14:16:37;36.60;99.90
435;DHT22;204;48.942;9.256;2023-06-22T14:19:03;36.70;99.90
435;DHT22;204;48.942;9.256;2023-06-22T14:21:29;36.70;99.90
435;DHT22;204;48.942;9.256;2023-06-22T14:23:54;36.60;99.90
435;DHT22;204;48.942;9.256;2023-06-22T14:26:20;36.60;99.90
435;DHT22;204;48.942;9.256;2023-06-22T14:28:48;36.70;99.90
435;DHT22;204;48.942;9.256;2023-06-22T14:31:16;36.70;99.90
435;DHT22;204;48.942;9.256;2023-06-22T14:33:47;36.70;99.90
435;DHT22;204;48.942;9.256;2023-06-22T14:36:14;36.80;99.90
435;DHT22;204;48.942;9.256;2023-06-22T14:38:39;36.80;99.90
435;DHT22;204;48.942;9.256;2023-06-22T14:41:05;36.90;99.90
435;DHT22;204;48.942;9.256;2023-06-22T14:43:31;37.10;99.90
435;DHT22;204;48.942;9.256;2023-06-22T14:45:56;37.10;99.90
435;DHT22;204;48.942;9.256;2023-06-22T14:48:22;37.00;99.90
435;DHT22;204;48.942;9.256;2023-06-22T14:50:48;37.00;99.90
435;DHT22;204;48.942;9.256;2023-06-22T14:53:14;37.00;99.90
435;DHT22;204;48.942;9.256;2023-06-22T14:55:40;37.10;99.90
435;DHT22;204;48.942;9.256;2023-06-22T14:58:05;37.20;99.90
435;DHT22;204;48.942;9.256;2023-06-22T15:00:31;37.30;99.90
435;DHT22;204;48.942;9.256;2023-06-22T15:02:57;37.40;99.90
435;DHT22;204;48.942;9.256;2023-06-22T15:05:25;37.50;99.90
435;DHT22;204;48.942;9.256;2023-06-22T15:07:51;37.40;99.90
435;DHT22;204;48.942;9.256;2023-06-22T15:10:16;37.30;99.90
435;DHT22;204;48.942;9.256;2023-06-22T15:12:42;37.20;99.90
435;DHT22;204;48.942;9.256;2023-06-22T15:15:08;37.00;99.90
435;DHT22;204;48.942;9.256;2023-06-22T15:17:34;36.80;99.90
435;DHT22;204;48.942;9.256;2023-06-22T15:19:59;36.50;99.90
435;DHT22;204;48.942;9.256;2023-06-22T15:22:25;36.40;99.90
435;DHT22;204;48.942;9.256;2023-06-22T15:24:51;36.20;99.90
435;DHT22;204;48.942;9.256;2023-06-22T15:27:19;36.00;99.90
435;DHT22;204;48.942;9.256;2023-06-22T15:29:45;35.80;99.90
435;DHT22;204;48.942;9.256;2023-06-22T15:32:11;35.70;99.90
435;DHT22;204;48.942;9.256;2023-06-22T15:34:38;35.50;99.90
435;DHT22;204;48.942;9.256;2023-06-22T15:37:04;35.40;99.90
435;DHT22;204;48.942;9.256;2023-06-22T15:39:29;35.40;99.90
435;DHT22;204;48.942;9.256;2023-06-22T15:41:55;35.30;99.90
435;DHT22;204;48.942;9.256;2023-06-22T15:44:23;35.30;99.90
435;DHT22;204;48.942;9.256;2023-06-22T15:46:49;35.30;99.90
435;DHT22;204;48.942;9.256;2023-06-22T15:49:16;35.40;99.90
435;DHT22;204;48.942;9.256;2023-06-22T15:51:41;35.40;99.90
435;DHT22;204;48.942;9.256;2023-06-22T15:54:07;35.50;99.90
435;DHT22;204;48.942;9.256;2023-06-22T15:56:32;35.40;99.90
435;DHT22;204;48.942;9.256;2023-06-22T15:58:58;35.40;99.90
435;DHT22;204;48.942;9.256;2023-06-22T16:01:24;35.40;99.90
435;DHT22;204;48.942;9.256;2023-06-22T16:03:50;35.30;99.90
435;DHT22;204;48.942;9.256;2023-06-22T16:06:16;35.30;99.90
435;DHT22;204;48.942;9.256;2023-06-22T16:08:41;35.20;99.90
435;DHT22;204;48.942;9.256;2023-06-22T16:11:07;35.20;99.90
435;DHT22;204;48.942;9.256;2023-06-22T16:13:33;35.30;99.90
435;DHT22;204;48.942;9.256;2023-06-22T16:15:59;35.30;99.90
435;DHT22;204;48.942;9.256;2023-06-22T16:18:24;35.30;99.90
435;DHT22;204;48.942;9.256;2023-06-22T16:20:50;35.20;99.90
435;DHT22;204;48.942;9.256;2023-06-22T16:23:16;35.10;99.90
435;DHT22;204;48.942;9.256;2023-06-22T16:25:43;35.00;99.90
435;DHT22;204;48.942;9.256;2023-06-22T16:28:08;35.00;99.90
435;DHT22;204;48.942;9.256;2023-06-22T16:30:34;35.00;99.90
435;DHT22;204;48.942;9.256;2023-06-22T16:33:01;35.00;99.90
435;DHT22;204;48.942;9.256;2023-06-22T16:35:28;34.90;99.90
435;DHT22;204;48.942;9.256;2023-06-22T16:37:55;35.00;99.90
435;DHT22;204;48.942;9.256;2023-06-22T16:40:22;34.90;99.90
435;DHT22;204;48.942;9.256;2023-06-22T16:42:48;34.80;99.90
435;DHT22;204;48.942;9.256;2023-06-22T16:45:14;34.70;99.90